createdAt,value
2023-04-22T00:00:14.212Z,98962.40
2023-04-22T00:03:09.341Z,98966.90
2023-04-22T00:05:38.501Z,98962.19
2023-04-22T00:08:06.985Z,98958.29
2023-04-22T00:10:34.994Z,98961.79
2023-04-22T00:13:03.298Z,98959.92
2023-04-22T00:15:34.621Z,98960.85
2023-04-22T00:18:03.356Z,98959.89
2023-04-22T00:20:33.115Z,98958.06
2023-04-22T00:23:00.987Z,98960.30
2023-04-22T00:25:28.839Z,98960.14
2023-04-22T00:27:57.308Z,98963.29
2023-04-22T00:30:25.304Z,98964.89
2023-04-22T00:32:53.914Z,98964.91
2023-04-22T00:35:22.386Z,98963.92
2023-04-22T00:37:50.260Z,98965.20
2023-04-22T00:40:18.295Z,98964.13
2023-04-22T00:42:49.559Z,98960.16
2023-04-22T00:45:19.968Z,98961.60
2023-04-22T00:47:49.241Z,98964.15
2023-04-22T00:50:17.367Z,98962.50
2023-04-22T00:52:45.259Z,98962.58
2023-04-22T00:55:13.782Z,98959.44
2023-04-22T00:57:42.599Z,98962.07
2023-04-22T01:00:11.871Z,98961.92
2023-04-22T01:02:40.662Z,98961.21
2023-04-22T01:05:11.614Z,98962.09
2023-04-22T01:07:39.635Z,98959.36
2023-04-22T01:10:08.606Z,98958.95
2023-04-22T01:12:36.386Z,98960.41
2023-04-22T01:15:07.576Z,98961.20
2023-04-22T01:17:36.372Z,98956.96
2023-04-22T01:20:05.588Z,98956.10
2023-04-22T01:22:41.075Z,98958.48
2023-04-22T01:25:11.593Z,98961.35
2023-04-22T01:27:41.092Z,98967.02
2023-04-22T01:30:12.655Z,98963.67
2023-04-22T01:32:41.428Z,98962.33
2023-04-22T01:35:10.474Z,98961.96
2023-04-22T01:37:39.329Z,98962.16
2023-04-22T01:40:11.040Z,98964.15
2023-04-22T01:42:39.390Z,98966.34
2023-04-22T01:45:07.800Z,98965.36
2023-04-22T01:47:35.735Z,98964.55
2023-04-22T01:50:04.663Z,98961.39
2023-04-22T01:52:32.933Z,98963.15
2023-04-22T01:55:02.780Z,98964.01
2023-04-22T01:57:30.697Z,98968.44
2023-04-22T01:59:58.675Z,98967.16
2023-04-22T02:02:27.526Z,98966.88
2023-04-22T02:04:55.661Z,98967.33
2023-04-22T02:07:23.962Z,98965.09
2023-04-22T02:09:52.351Z,98965.89
2023-04-22T02:12:20.187Z,98963.36
2023-04-22T02:14:51.396Z,98966.05
2023-04-22T02:17:19.710Z,98961.54
2023-04-22T02:19:47.783Z,98962.70
2023-04-22T02:22:17.134Z,98966.32
2023-04-22T02:24:45.891Z,98968.42
2023-04-22T02:27:13.756Z,98966.44
2023-04-22T02:29:42.127Z,98963.88
2023-04-22T02:32:10.759Z,98964.39
2023-04-22T02:34:38.690Z,98962.35
2023-04-22T02:37:06.500Z,98962.14
2023-04-22T02:39:35.359Z,98963.80
2023-04-22T02:42:03.307Z,98963.73
2023-04-22T02:44:31.312Z,98963.88
2023-04-22T02:46:59.724Z,98962.58
2023-04-22T02:49:27.901Z,98962.66
2023-04-22T02:51:57.416Z,98964.77
2023-04-22T02:54:25.833Z,98963.35
2023-04-22T02:56:53.657Z,98961.45
2023-04-22T02:59:22.339Z,98960.94
2023-04-22T03:01:50.927Z,98965.20
2023-04-22T03:04:22.129Z,98966.30
2023-04-22T03:06:50.216Z,98969.08
2023-04-22T03:09:18.359Z,98964.67
2023-04-22T03:11:46.312Z,98965.56
2023-04-22T03:14:14.622Z,98970.59
2023-04-22T03:16:42.463Z,98971.42
2023-04-22T03:19:10.488Z,98974.15
2023-04-22T03:21:38.411Z,98975.14
2023-04-22T03:24:06.482Z,98974.13
2023-04-22T03:26:35.227Z,98976.90
2023-04-22T03:29:03.362Z,98980.50
2023-04-22T03:31:31.377Z,98980.50
2023-04-22T03:33:59.590Z,98985.03
2023-04-22T03:36:33.446Z,98986.23
2023-04-22T03:39:01.746Z,98985.67
2023-04-22T03:41:29.719Z,98984.96
2023-04-22T03:44:00.342Z,98989.25
2023-04-22T03:46:29.554Z,98989.23
2023-04-22T03:48:57.362Z,98991.48
2023-04-22T03:51:25.416Z,98987.98
2023-04-22T03:53:53.300Z,98989.48
2023-04-22T03:56:21.703Z,98991.27
2023-04-22T03:58:52.393Z,98993.05
2023-04-22T04:01:21.008Z,98993.80
2023-04-22T04:03:49.274Z,98995.42
2023-04-22T04:06:17.348Z,98996.92
2023-04-22T04:08:46.291Z,98999.36
2023-04-22T04:11:14.418Z,98996.45
2023-04-22T04:13:42.288Z,99000.61
2023-04-22T04:16:10.652Z,99001.02
2023-04-22T04:18:38.898Z,98998.83
2023-04-22T04:21:06.862Z,98998.90
2023-04-22T04:23:34.655Z,99001.84
2023-04-22T04:26:03.117Z,99004.23
2023-04-22T04:28:32.989Z,99004.33
2023-04-22T04:31:03.007Z,99007.55
2023-04-22T04:33:32.710Z,99011.71
2023-04-22T04:36:00.622Z,99011.16
2023-04-22T04:38:29.067Z,99011.27
2023-04-22T04:40:56.918Z,99015.32
2023-04-22T04:43:26.282Z,99014.92
2023-04-22T04:45:54.374Z,99017.09
2023-04-22T04:48:25.288Z,99015.11
2023-04-22T04:50:54.310Z,99019.66
2023-04-22T04:53:22.737Z,99019.84
2023-04-22T04:55:54.211Z,99020.00
2023-04-22T04:58:22.944Z,99021.20
2023-04-22T05:00:51.819Z,99019.16
2023-04-22T05:03:19.889Z,99015.69
2023-04-22T05:05:49.125Z,99018.73
2023-04-22T05:08:17.683Z,99017.44
2023-04-22T05:10:45.543Z,99018.06
2023-04-22T05:13:13.743Z,99017.82
2023-04-22T05:15:41.877Z,99023.50
2023-04-22T05:18:10.178Z,99029.58
2023-04-22T05:20:38.062Z,99030.58
2023-04-22T05:23:06.107Z,99029.52
2023-04-22T05:25:33.937Z,99034.54
2023-04-22T05:28:02.355Z,99035.79
2023-04-22T05:30:30.303Z,99036.86
2023-04-22T05:32:58.199Z,99042.51
2023-04-22T05:35:26.239Z,99039.87
2023-04-22T05:37:54.193Z,99039.48
2023-04-22T05:40:27.857Z,99038.44
2023-04-22T05:42:58.214Z,99037.64
2023-04-22T05:45:26.096Z,99037.70
2023-04-22T05:47:54.490Z,99040.27
2023-04-22T05:50:23.412Z,99039.34
2023-04-22T05:52:51.327Z,99035.52
2023-04-22T05:55:19.344Z,99037.48
2023-04-22T05:57:47.590Z,99037.17
2023-04-22T06:00:19.016Z,99040.23
2023-04-22T06:02:46.996Z,99037.77
2023-04-22T06:05:15.144Z,99042.33
2023-04-22T06:07:46.714Z,99041.56
2023-04-22T06:10:14.562Z,99041.50
2023-04-22T06:12:42.427Z,99041.78
2023-04-22T06:15:11.769Z,99039.98
2023-04-22T06:17:39.645Z,99040.41
2023-04-22T06:20:08.365Z,99039.84
2023-04-22T06:22:36.532Z,99035.79
2023-04-22T06:25:04.744Z,99040.10
2023-04-22T06:27:35.792Z,99036.89
2023-04-22T06:30:05.045Z,99036.23
2023-04-22T06:32:33.159Z,99036.91
2023-04-22T06:35:01.058Z,99037.27
2023-04-22T06:37:28.951Z,99039.20
2023-04-22T06:39:56.915Z,99043.52
2023-04-22T06:42:25.321Z,99046.55
2023-04-22T06:44:53.191Z,99045.20
2023-04-22T06:47:21.185Z,99041.83
2023-04-22T06:49:50.418Z,99041.27
2023-04-22T06:52:18.837Z,99037.98
2023-04-22T06:54:46.792Z,99039.67
2023-04-22T06:57:16.067Z,99038.28
2023-04-22T06:59:46.719Z,99039.17
2023-04-22T07:02:15.118Z,99037.77
2023-04-22T07:04:43.189Z,99045.80
2023-04-22T07:07:11.626Z,99040.65
2023-04-22T07:09:40.033Z,99038.05
2023-04-22T07:12:08.937Z,99036.42
2023-04-22T07:14:37.456Z,99037.83
2023-04-22T07:17:05.354Z,99040.86
2023-04-22T07:19:34.795Z,99040.45
2023-04-22T07:22:04.174Z,99038.70
2023-04-22T07:24:32.635Z,99040.72
2023-04-22T07:27:02.679Z,99039.89
2023-04-22T07:29:30.566Z,99044.41
2023-04-22T07:31:58.406Z,99045.39
2023-04-22T07:34:26.843Z,99042.59
2023-04-22T07:36:54.933Z,99042.98
2023-04-22T07:39:23.134Z,99039.96
2023-04-22T07:41:51.688Z,99041.40
2023-04-22T07:44:21.837Z,99038.37
2023-04-22T07:46:50.804Z,99038.31
2023-04-22T07:49:20.018Z,99038.39
2023-04-22T07:51:48.385Z,99038.95
2023-04-22T07:54:16.728Z,99039.32
2023-04-22T07:56:44.637Z,99041.38
2023-04-22T07:59:12.448Z,99038.98
2023-04-22T08:01:40.455Z,99040.09
2023-04-22T08:04:08.616Z,99033.61
2023-04-22T08:06:37.234Z,99035.24
2023-04-22T08:09:05.797Z,99036.52
2023-04-22T08:11:33.735Z,99037.87
2023-04-22T08:14:01.654Z,99035.88
2023-04-22T08:16:29.668Z,99034.39
2023-04-22T08:18:57.999Z,99037.96
2023-04-22T08:21:27.576Z,99037.67
2023-04-22T08:23:56.252Z,99037.60
2023-04-22T08:26:24.233Z,99037.27
2023-04-22T08:28:52.410Z,99037.91
2023-04-22T08:31:20.369Z,99041.14
2023-04-22T08:33:48.729Z,99038.77
2023-04-22T08:36:17.061Z,99037.31
2023-04-22T08:38:47.836Z,99037.83
2023-04-22T08:41:19.322Z,99037.69
2023-04-22T08:43:48.485Z,99035.62
2023-04-22T08:46:17.970Z,99038.52
2023-04-22T08:48:49.153Z,99035.48
2023-04-22T08:51:18.554Z,99039.45
2023-04-22T08:53:47.440Z,99033.35
2023-04-22T08:56:15.854Z,99032.76
2023-04-22T08:58:43.988Z,99028.81
2023-04-22T09:01:13.440Z,99027.27
2023-04-22T09:03:42.492Z,99028.57
2023-04-22T09:06:12.252Z,99027.30
2023-04-22T09:08:40.278Z,99024.98
2023-04-22T09:11:08.454Z,99025.84
2023-04-22T09:13:36.378Z,99025.80
2023-04-22T09:16:04.880Z,99023.42
2023-04-22T09:18:41.253Z,99018.92
2023-04-22T09:21:09.256Z,99013.89
2023-04-22T09:23:52.993Z,99017.25
2023-04-22T09:26:25.349Z,99013.81
2023-04-22T09:29:01.162Z,99019.58
2023-04-22T09:31:29.452Z,99014.70
2023-04-22T09:33:59.169Z,99013.92
2023-04-22T09:36:29.062Z,99007.98
2023-04-22T09:38:59.674Z,99005.89
2023-04-22T09:41:39.312Z,98998.36
2023-04-22T09:44:16.382Z,98993.20
2023-04-22T09:46:45.016Z,98992.27
2023-04-22T09:49:16.892Z,98988.55
2023-04-22T09:51:45.223Z,98990.23
2023-04-22T09:54:15.488Z,98986.45
2023-04-22T09:56:53.886Z,98982.25
2023-04-22T09:59:28.852Z,98985.20
2023-04-22T10:02:00.177Z,98982.73
2023-04-22T10:04:28.864Z,98981.98
2023-04-22T10:06:57.550Z,98979.20
2023-04-22T17:56:49.961Z,98887.79
2023-04-22T17:59:17.932Z,98888.39
2023-04-22T18:01:46.062Z,98891.52
2023-04-22T18:04:14.161Z,98894.43
2023-04-22T18:06:42.316Z,98892.40
2023-04-22T18:09:10.777Z,98895.48
2023-04-22T18:11:39.521Z,98893.64
2023-04-22T18:14:08.666Z,98891.67
2023-04-22T18:16:36.523Z,98895.64
2023-04-22T18:19:06.947Z,98899.94
2023-04-22T18:21:34.887Z,98898.52
2023-04-22T18:24:03.239Z,98901.91
2023-04-22T18:26:31.699Z,98904.11
2023-04-22T18:28:59.581Z,98905.46
2023-04-22T18:31:27.524Z,98904.55
2023-04-22T18:33:55.507Z,98904.36
2023-04-22T18:36:23.514Z,98906.11
2023-04-22T18:38:52.207Z,98902.23
2023-04-22T18:41:20.689Z,98905.32
2023-04-22T18:43:48.724Z,98904.67
2023-04-22T18:46:16.701Z,98906.73
2023-04-22T18:48:44.639Z,98908.44
2023-04-22T18:51:13.619Z,98908.29
2023-04-22T18:53:42.049Z,98906.68
2023-04-22T18:56:10.429Z,98910.65
2023-04-22T18:58:41.889Z,98914.32
2023-04-22T19:01:12.016Z,98917.14
2023-04-22T19:03:40.360Z,98914.64
2023-04-22T19:06:08.736Z,98913.63
2023-04-22T19:08:37.145Z,98917.84
2023-04-22T19:11:05.752Z,98915.92
2023-04-22T19:13:33.636Z,98915.27
2023-04-22T19:16:01.660Z,98914.83
2023-04-22T19:18:29.857Z,98916.62
2023-04-22T19:20:58.176Z,98917.38
2023-04-22T19:23:26.922Z,98916.90
2023-04-22T19:25:54.715Z,98916.53
2023-04-22T19:28:22.565Z,98917.92
2023-04-22T19:30:51.981Z,98917.44
2023-04-22T19:33:20.529Z,98918.20
2023-04-22T19:35:49.129Z,98918.73
2023-04-22T19:38:21.539Z,98923.10
2023-04-22T19:40:50.980Z,98920.99
2023-04-22T19:43:19.431Z,98917.54
2023-04-22T19:45:47.730Z,98916.64
2023-04-22T19:48:16.046Z,98913.90
2023-04-22T19:50:50.734Z,98915.23
2023-04-22T19:53:20.664Z,98915.40
2023-04-22T19:55:48.744Z,98911.50
2023-04-22T19:58:17.303Z,98910.55
2023-04-22T20:00:46.230Z,98911.01
2023-04-22T20:03:16.305Z,98914.42
2023-04-22T20:05:46.745Z,98912.02
2023-04-22T20:08:15.914Z,98913.27
2023-04-22T20:10:45.172Z,98908.29
2023-04-22T20:13:13.794Z,98907.30
2023-04-22T20:15:45.834Z,98906.66
2023-04-22T20:18:17.097Z,98907.64
2023-04-22T20:20:49.217Z,98908.88
2023-04-22T20:23:21.266Z,98912.14
2023-04-22T20:25:50.959Z,98911.70
2023-04-22T20:28:19.430Z,98912.84
2023-04-22T20:30:47.877Z,98907.73
2023-04-22T20:33:18.048Z,98909.73
2023-04-22T20:35:49.368Z,98907.15
2023-04-22T20:38:19.563Z,98907.67
2023-04-22T20:40:47.840Z,98911.59
2023-04-22T20:43:16.571Z,98906.06
2023-04-22T20:45:44.396Z,98910.35
2023-04-22T20:48:12.347Z,98906.38
2023-04-22T20:50:40.853Z,98912.80
2023-04-22T20:53:08.673Z,98911.23
2023-04-22T20:55:37.303Z,98910.99
2023-04-22T20:58:06.154Z,98909.88
2023-04-22T21:00:34.340Z,98915.10
2023-04-22T21:03:09.003Z,98912.86
2023-04-22T21:05:46.916Z,98913.64
2023-04-22T21:08:23.796Z,98912.11
2023-04-22T21:10:56.966Z,98915.23
2023-04-22T21:13:25.246Z,98919.92
2023-04-22T21:16:02.081Z,98917.92
2023-04-22T21:18:32.990Z,98917.65
2023-04-22T21:21:04.057Z,98917.41
2023-04-22T21:23:32.208Z,98916.18
2023-04-22T21:26:01.766Z,98917.07
2023-04-22T21:28:30.935Z,98921.17
2023-04-22T21:30:59.824Z,98916.83
2023-04-22T21:33:27.713Z,98918.61
2023-04-22T21:35:55.653Z,98918.57
2023-04-22T21:38:23.432Z,98918.91
2023-04-22T21:40:51.265Z,98917.35
2023-04-22T21:43:19.723Z,98918.08
2023-04-22T21:45:48.249Z,98915.52
2023-04-22T21:48:16.194Z,98917.30
2023-04-22T21:50:44.158Z,98913.10
2023-04-22T21:53:12.120Z,98913.36
2023-04-22T21:55:40.928Z,98913.99
2023-04-22T21:58:09.435Z,98914.33
2023-04-22T22:00:37.966Z,98916.66
2023-04-22T22:03:06.531Z,98917.83
2023-04-22T22:05:34.522Z,98918.06
2023-04-22T22:08:02.512Z,98915.34
2023-04-22T22:10:30.515Z,98916.83
2023-04-22T22:12:58.318Z,98915.54
2023-04-22T22:15:26.178Z,98917.96
2023-04-22T22:17:54.187Z,98920.85
2023-04-22T22:20:22.087Z,98914.82
2023-04-22T22:22:49.868Z,98918.57
2023-04-22T22:25:17.884Z,98919.34
2023-04-22T22:27:49.012Z,98919.70
2023-04-22T22:30:18.839Z,98918.05
2023-04-22T22:32:47.110Z,98917.95
2023-04-22T22:35:15.278Z,98920.39
2023-04-22T22:37:46.239Z,98920.49
2023-04-22T22:40:14.570Z,98918.04
2023-04-22T22:42:42.890Z,98918.28
2023-04-22T22:45:11.800Z,98922.25
2023-04-22T22:47:42.680Z,98920.56
2023-04-22T22:50:11.666Z,98921.02
2023-04-22T22:52:39.576Z,98919.86
2023-04-22T22:55:09.163Z,98917.77
2023-04-22T22:57:37.117Z,98921.81
2023-04-22T23:00:06.521Z,98918.68
2023-04-22T23:02:34.629Z,98919.02
2023-04-22T23:05:02.800Z,98919.20
2023-04-22T23:07:30.701Z,98917.69
2023-04-22T23:09:58.528Z,98918.63
2023-04-22T23:12:26.449Z,98920.27
2023-04-22T23:14:54.256Z,98919.58
2023-04-22T23:17:22.716Z,98919.33
2023-04-22T23:19:52.320Z,98918.30
2023-04-22T23:22:20.566Z,98913.32
2023-04-22T23:24:48.656Z,98908.84
2023-04-22T23:27:17.602Z,98907.02
2023-04-22T23:29:45.962Z,98906.63
2023-04-22T23:32:15.659Z,98907.13
2023-04-22T23:34:45.785Z,98910.06
2023-04-22T23:37:16.448Z,98911.25
2023-04-22T23:39:44.450Z,98911.54
2023-04-22T23:42:12.361Z,98907.11
2023-04-22T23:44:40.507Z,98907.27
2023-04-22T23:47:08.787Z,98902.86
2023-04-22T23:49:37.110Z,98900.56
2023-04-22T23:52:04.992Z,98898.58
2023-04-22T23:54:33.278Z,98899.86
2023-04-22T23:57:01.483Z,98900.77
2023-04-22T23:59:29.670Z,98898.44
